createdAt,value
2018-03-19T00:00:39.435Z,0
2018-03-19T00:01:40.049Z,0
2018-03-19T00:02:40.650Z,0
2018-03-19T00:03:41.278Z,0
2018-03-19T00:04:41.856Z,0
2018-03-19T00:05:42.540Z,0
2018-03-19T00:06:43.178Z,0
2018-03-19T00:07:43.749Z,0
2018-03-19T00:08:44.376Z,0
2018-03-19T00:09:45.030Z,0
2018-03-19T00:10:45.704Z,0
2018-03-19T00:11:46.305Z,0
2018-03-19T00:12:46.921Z,0
2018-03-19T00:13:47.544Z,0
2018-03-19T00:14:48.157Z,0
2018-03-19T00:15:48.803Z,0
2018-03-19T00:16:49.383Z,0
2018-03-19T00:17:49.996Z,0
2018-03-19T00:18:50.625Z,0
2018-03-19T00:19:51.236Z,0
2018-03-19T00:20:51.872Z,0
2018-03-19T00:21:52.466Z,0
2018-03-19T00:22:53.065Z,0
2018-03-19T00:23:53.712Z,0
2018-03-19T00:24:54.291Z,0
2018-03-19T00:25:54.910Z,0
2018-03-19T00:26:55.540Z,0
2018-03-19T00:27:56.167Z,0
2018-03-19T00:28:56.776Z,0
2018-03-19T00:29:57.412Z,0
2018-03-19T00:30:58.022Z,0
2018-03-19T00:31:58.654Z,0
2018-03-19T00:32:59.446Z,0
2018-03-19T00:34:00.087Z,0
2018-03-19T00:35:00.668Z,0
2018-03-19T00:36:01.290Z,0
2018-03-19T00:37:01.876Z,0
2018-03-19T00:38:02.496Z,0
2018-03-19T00:39:03.099Z,0
2018-03-19T00:40:03.689Z,0
2018-03-19T00:41:04.310Z,0
2018-03-19T00:42:04.936Z,0
2018-03-19T00:43:05.552Z,0
2018-03-19T00:44:06.136Z,0
2018-03-19T00:45:06.771Z,0
2018-03-19T00:46:07.455Z,0
2018-03-19T00:47:08.044Z,0
2018-03-19T00:48:08.653Z,0
2018-03-19T00:49:09.308Z,0
2018-03-19T00:50:09.909Z,0
2018-03-19T00:51:10.534Z,0
2018-03-19T00:52:11.155Z,0
2018-03-19T00:53:11.739Z,0
2018-03-19T00:54:12.385Z,0
2018-03-19T00:55:13.033Z,0
2018-03-19T00:56:13.673Z,0
2018-03-19T00:57:14.283Z,0
2018-03-19T00:58:14.926Z,0
2018-03-19T00:59:15.554Z,0
2018-03-19T01:00:16.171Z,0
2018-03-19T01:01:16.796Z,0
2018-03-19T01:02:17.399Z,0
2018-03-19T01:03:17.996Z,0
2018-03-19T01:04:18.617Z,0
2018-03-19T01:05:19.182Z,0
2018-03-19T01:06:19.774Z,0
2018-03-19T01:07:20.508Z,0
2018-03-19T01:08:21.150Z,0
2018-03-19T01:09:21.781Z,0
2018-03-19T01:10:22.496Z,0
2018-03-19T01:11:23.169Z,0
2018-03-19T01:12:23.835Z,0
2018-03-19T01:13:24.443Z,0
2018-03-19T01:14:25.169Z,0
2018-03-19T01:15:25.871Z,0
2018-03-19T01:16:26.543Z,0
2018-03-19T01:17:27.215Z,0
2018-03-19T01:18:27.893Z,0
2018-03-19T01:19:28.564Z,0
2018-03-19T01:20:29.224Z,0
2018-03-19T01:21:29.880Z,0
2018-03-19T01:22:30.597Z,0
2018-03-19T01:23:31.224Z,0
2018-03-19T01:24:31.865Z,0
2018-03-19T01:25:32.538Z,0
2018-03-19T01:26:33.147Z,0
2018-03-19T01:27:33.787Z,0
2018-03-19T01:28:34.366Z,0
2018-03-19T01:29:35.041Z,0
2018-03-19T01:30:35.714Z,0
2018-03-19T01:31:36.359Z,0
2018-03-19T01:32:37.004Z,0
2018-03-19T01:33:38.649Z,0
2018-03-19T01:34:39.322Z,0
2018-03-19T01:35:39.987Z,0
2018-03-19T01:36:40.673Z,0
2018-03-19T01:37:41.365Z,0
2018-03-19T01:38:42.028Z,0
2018-03-19T01:39:42.666Z,0
2018-03-19T01:40:43.315Z,0
2018-03-19T01:41:43.895Z,0
2018-03-19T01:42:44.478Z,0
2018-03-19T01:43:45.084Z,0
2018-03-19T01:44:45.762Z,0
2018-03-19T01:45:46.414Z,0
2018-03-19T01:46:47.079Z,0
2018-03-19T01:47:47.700Z,0
2018-03-19T01:48:48.387Z,0
2018-03-19T01:49:49.061Z,0
2018-03-19T01:50:49.693Z,0
2018-03-19T01:51:50.370Z,0
2018-03-19T01:52:51.039Z,0
2018-03-19T01:53:51.740Z,0
2018-03-19T01:54:52.433Z,0
2018-03-19T01:55:53.087Z,0
2018-03-19T01:56:53.736Z,0
2018-03-19T01:57:54.346Z,0
2018-03-19T01:58:54.945Z,0
2018-03-19T01:59:55.619Z,0
2018-03-19T02:00:56.307Z,0
2018-03-19T02:01:56.940Z,0
2018-03-19T02:02:57.601Z,0
2018-03-19T02:03:58.253Z,0
2018-03-19T02:04:58.834Z,0
2018-03-19T02:05:59.512Z,0
2018-03-19T02:07:00.174Z,0
2018-03-19T02:08:00.821Z,0
2018-03-19T02:09:01.490Z,0
2018-03-19T02:10:02.215Z,0
2018-03-19T02:11:02.877Z,0
2018-03-19T02:12:03.571Z,0
2018-03-19T02:13:04.173Z,0
2018-03-19T02:14:04.746Z,0
2018-03-19T02:15:05.416Z,0
2018-03-19T02:16:06.113Z,0
2018-03-19T02:17:06.810Z,0
2018-03-19T02:18:07.445Z,0
2018-03-19T02:19:08.159Z,0
2018-03-19T02:20:08.801Z,0
2018-03-19T02:21:09.495Z,0
2018-03-19T02:22:10.126Z,0
2018-03-19T02:23:10.789Z,0
2018-03-19T02:24:11.462Z,0
2018-03-19T02:25:12.174Z,0
2018-03-19T02:26:12.866Z,0
2018-03-19T02:27:13.533Z,0
2018-03-19T02:28:14.157Z,0
2018-03-19T02:29:14.893Z,0
2018-03-19T02:30:15.462Z,0
2018-03-19T02:32:00.274Z,0
2018-03-19T02:33:00.868Z,0
2018-03-19T02:34:01.469Z,0
2018-03-19T02:35:02.059Z,0
2018-03-19T02:36:02.665Z,0
2018-03-19T02:37:03.266Z,0
2018-03-19T02:38:03.938Z,0
2018-03-19T02:39:04.571Z,0
2018-03-19T02:40:05.204Z,0
2018-03-19T02:41:06.037Z,0
2018-03-19T02:42:06.645Z,0
2018-03-19T02:43:07.313Z,0
2018-03-19T02:44:07.907Z,0
2018-03-19T02:45:08.546Z,0
2018-03-19T02:46:09.191Z,0
2018-03-19T02:47:09.836Z,0
2018-03-19T02:48:10.419Z,0
2018-03-19T02:49:11.053Z,0
2018-03-19T02:50:11.887Z,0
2018-03-19T02:51:12.539Z,0
2018-03-19T02:52:13.171Z,0
2018-03-19T02:53:13.798Z,0
2018-03-19T02:54:14.383Z,0
2018-03-19T02:55:15.059Z,0
2018-03-19T02:56:15.669Z,0
2018-03-19T02:57:16.376Z,0
2018-03-19T02:58:16.967Z,0
2018-03-19T02:59:17.577Z,0
2018-03-19T03:00:18.157Z,0
2018-03-19T03:01:18.790Z,0
2018-03-19T03:02:19.447Z,0
2018-03-19T03:03:20.096Z,0
2018-03-19T03:04:20.749Z,0
2018-03-19T03:05:21.429Z,0
2018-03-19T03:06:22.096Z,0
2018-03-19T03:07:22.752Z,0
2018-03-19T03:08:23.403Z,0
2018-03-19T03:09:24.004Z,0
2018-03-19T03:10:24.606Z,0
2018-03-19T03:11:25.206Z,0
2018-03-19T03:12:25.829Z,0
2018-03-19T03:13:26.550Z,0
2018-03-19T03:14:27.176Z,0
2018-03-19T03:15:27.829Z,0
2018-03-19T03:16:28.459Z,0
2018-03-19T03:17:29.136Z,0
2018-03-19T03:18:29.723Z,0
2018-03-19T03:19:30.354Z,0
2018-03-19T03:20:30.981Z,0
2018-03-19T03:21:31.655Z,0
2018-03-19T03:22:32.297Z,0
2018-03-19T03:23:33.170Z,0
2018-03-19T03:24:33.753Z,0
2018-03-19T03:25:34.408Z,0
2018-03-19T03:26:35.047Z,0
2018-03-19T03:27:35.954Z,0
2018-03-19T03:28:36.509Z,0
2018-03-19T03:29:37.180Z,0
2018-03-19T03:30:37.814Z,0
2018-03-19T03:31:38.461Z,0
2018-03-19T03:32:39.092Z,0
2018-03-19T03:33:39.686Z,0
2018-03-19T03:34:40.302Z,0
2018-03-19T03:35:40.948Z,0
2018-03-19T03:36:41.544Z,0
2018-03-19T03:37:42.191Z,0
2018-03-19T03:38:42.801Z,0
2018-03-19T03:39:43.614Z,0
2018-03-19T03:40:44.301Z,0
2018-03-19T03:41:44.913Z,0
2018-03-19T03:42:45.638Z,0
2018-03-19T03:43:46.284Z,0
2018-03-19T03:44:46.910Z,0
2018-03-19T03:45:47.545Z,0
2018-03-19T03:46:48.205Z,0
2018-03-19T03:47:48.811Z,0
2018-03-19T03:48:49.408Z,0
2018-03-19T03:49:50.062Z,0
2018-03-19T03:50:50.699Z,0
2018-03-19T03:51:51.331Z,0
2018-03-19T03:52:51.924Z,0
2018-03-19T03:53:52.565Z,0
2018-03-19T03:54:53.183Z,0
2018-03-19T03:55:54.023Z,0
2018-03-19T03:56:54.652Z,0
2018-03-19T03:57:55.270Z,0
2018-03-19T03:58:55.905Z,0
2018-03-19T03:59:56.494Z,0
2018-03-19T04:00:57.107Z,0
2018-03-19T04:01:57.691Z,0
2018-03-19T04:02:58.330Z,0
2018-03-19T04:03:58.968Z,0
2018-03-19T04:04:59.655Z,0
2018-03-19T04:06:00.251Z,0
2018-03-19T04:07:00.944Z,0
2018-03-19T04:08:01.647Z,0
2018-03-19T04:09:02.318Z,0
2018-03-19T04:10:03.858Z,0
2018-03-19T04:11:04.447Z,0
2018-03-19T04:12:05.110Z,0
2018-03-19T04:13:05.728Z,0
2018-03-19T04:14:06.319Z,0
2018-03-19T04:15:06.987Z,0
2018-03-19T04:16:07.595Z,0
2018-03-19T04:17:08.228Z,0
2018-03-19T04:18:08.862Z,0
2018-03-19T04:19:09.500Z,0
2018-03-19T04:20:10.160Z,0
2018-03-19T04:21:10.777Z,0
2018-03-19T04:22:11.422Z,0
2018-03-19T04:23:12.031Z,0
2018-03-19T04:24:12.667Z,0
2018-03-19T04:25:13.294Z,0
2018-03-19T04:26:13.859Z,0
2018-03-19T04:27:14.550Z,0
2018-03-19T04:28:15.198Z,0
2018-03-19T04:29:15.826Z,0
2018-03-19T04:30:16.451Z,0
2018-03-19T04:31:17.090Z,0
2018-03-19T04:32:17.744Z,0
2018-03-19T04:33:18.390Z,0
2018-03-19T04:34:19.091Z,0
2018-03-19T04:35:19.707Z,0
2018-03-19T04:36:20.305Z,0
2018-03-19T04:37:20.941Z,0
2018-03-19T04:38:21.641Z,0
2018-03-19T04:39:22.232Z,0
2018-03-19T04:40:22.862Z,0
2018-03-19T04:41:23.531Z,0
2018-03-19T04:42:24.201Z,0
2018-03-19T04:43:24.817Z,0
2018-03-19T04:44:25.522Z,0
2018-03-19T04:45:26.102Z,0
2018-03-19T04:46:26.794Z,0
2018-03-19T04:47:27.418Z,0
2018-03-19T04:48:28.035Z,0
2018-03-19T04:49:28.679Z,0
2018-03-19T04:50:29.330Z,0
2018-03-19T04:51:29.928Z,0
2018-03-19T04:52:30.588Z,0
2018-03-19T04:53:31.236Z,0
2018-03-19T04:54:31.844Z,0
2018-03-19T04:55:32.436Z,0
2018-03-19T04:56:33.126Z,0
2018-03-19T04:57:33.721Z,0
2018-03-19T04:58:34.319Z,0
2018-03-19T04:59:34.976Z,0
2018-03-19T05:00:35.563Z,0
2018-03-19T05:01:36.203Z,0
2018-03-19T05:02:36.783Z,0
2018-03-19T05:03:37.383Z,0
2018-03-19T05:04:38.041Z,0
2018-03-19T05:05:38.653Z,0
2018-03-19T05:06:39.229Z,0
2018-03-19T05:07:39.853Z,4
2018-03-19T05:08:40.460Z,0
2018-03-19T05:09:41.105Z,0
2018-03-19T05:10:41.814Z,4
2018-03-19T05:11:42.356Z,0
2018-03-19T05:12:43.050Z,4
2018-03-19T05:13:43.662Z,8
2018-03-19T05:14:44.272Z,8
2018-03-19T05:15:44.950Z,4
2018-03-19T05:16:45.527Z,12
2018-03-19T05:17:46.149Z,12
2018-03-19T05:18:46.814Z,12
2018-03-19T05:19:47.389Z,16
2018-03-19T05:20:47.968Z,20
2018-03-19T05:21:48.594Z,24
2018-03-19T05:22:49.243Z,28
2018-03-19T05:23:49.867Z,32
2018-03-19T05:24:50.428Z,36
2018-03-19T05:25:51.067Z,44
2018-03-19T05:26:51.691Z,52
2018-03-19T05:27:52.358Z,60
2018-03-19T05:28:52.984Z,64
2018-03-19T05:29:53.622Z,76
2018-03-19T05:30:54.251Z,80
2018-03-19T05:31:54.894Z,92
2018-03-19T05:32:55.505Z,100
2018-03-19T05:33:56.111Z,108
2018-03-19T05:34:56.730Z,124
2018-03-19T05:35:57.395Z,136
2018-03-19T05:36:58.025Z,148
2018-03-19T05:37:58.687Z,164
2018-03-19T05:38:59.313Z,176
2018-03-19T05:39:59.939Z,192
2018-03-19T05:41:00.620Z,208
2018-03-19T05:42:01.275Z,224
2018-03-19T05:43:01.850Z,240
2018-03-19T05:44:02.480Z,260
2018-03-19T05:45:03.141Z,272
2018-03-19T05:46:03.717Z,288
2018-03-19T05:47:04.401Z,308
2018-03-19T05:48:05.054Z,336
2018-03-19T05:49:05.749Z,360
2018-03-19T05:50:06.365Z,388
2018-03-19T05:51:06.999Z,416
2018-03-19T05:52:07.679Z,444
2018-03-19T05:53:08.316Z,472
2018-03-19T05:54:08.970Z,496
2018-03-19T05:55:09.577Z,532
2018-03-19T05:56:10.211Z,572
2018-03-19T05:57:10.997Z,620
2018-03-19T05:58:11.717Z,664
2018-03-19T05:59:12.282Z,716
2018-03-19T06:00:12.933Z,768
2018-03-19T06:01:13.526Z,832
2018-03-19T06:02:14.225Z,884
2018-03-19T06:03:14.866Z,920
2018-03-19T06:04:15.529Z,928
2018-03-19T06:05:16.146Z,936
2018-03-19T06:06:16.816Z,952
2018-03-19T06:07:17.432Z,968
2018-03-19T06:08:18.047Z,984
2018-03-19T06:09:18.737Z,992
2018-03-19T06:10:19.421Z,992
2018-03-19T06:11:20.036Z,1008
2018-03-19T06:12:20.664Z,1052
2018-03-19T06:13:21.345Z,1112
2018-03-19T06:14:21.988Z,1196
2018-03-19T06:15:22.623Z,1296
2018-03-19T06:16:23.282Z,1404
2018-03-19T06:17:23.965Z,1480
2018-03-19T06:18:24.588Z,1532
2018-03-19T06:19:25.275Z,1584
2018-03-19T06:20:25.910Z,1636
2018-03-19T06:21:26.546Z,1672
2018-03-19T06:22:27.146Z,1676
2018-03-19T06:23:27.740Z,1660
2018-03-19T06:24:28.383Z,1656
2018-03-19T06:25:29.000Z,1664
2018-03-19T06:26:29.623Z,1668
2018-03-19T06:27:30.257Z,1680
2018-03-19T06:28:31.096Z,1704
2018-03-19T06:29:31.746Z,1740
2018-03-19T06:30:32.385Z,1784
2018-03-19T06:31:33.030Z,1836
2018-03-19T06:32:33.678Z,1896
2018-03-19T06:33:34.292Z,1964
2018-03-19T06:34:34.953Z,2040
2018-03-19T06:35:35.554Z,2104
2018-03-19T06:36:36.180Z,2160
2018-03-19T06:37:36.878Z,2212
2018-03-19T06:38:37.513Z,2288
2018-03-19T06:39:38.159Z,2380
2018-03-19T06:40:38.818Z,2456
2018-03-19T06:41:39.445Z,2504
2018-03-19T06:42:40.090Z,2528
2018-03-19T06:43:40.719Z,2536
2018-03-19T06:44:41.409Z,2564
2018-03-19T06:45:42.042Z,2604
2018-03-19T06:46:42.684Z,2656
2018-03-19T06:47:43.317Z,2716
2018-03-19T06:48:43.891Z,2776
2018-03-19T06:49:44.524Z,2836
2018-03-19T06:50:45.157Z,2936
2018-03-19T06:51:45.832Z,3052
2018-03-19T06:52:46.462Z,3176
2018-03-19T06:53:47.124Z,3284
2018-03-19T06:54:47.737Z,3356
2018-03-19T06:55:48.411Z,3396
2018-03-19T06:56:49.026Z,3420
2018-03-19T06:57:49.670Z,3456
2018-03-19T06:58:50.362Z,3508
2018-03-19T06:59:50.991Z,3576
2018-03-19T07:00:51.705Z,3628
2018-03-19T07:01:52.234Z,3656
2018-03-19T07:02:52.902Z,3680
2018-03-19T07:03:53.587Z,3668
2018-03-19T07:04:54.219Z,3660
2018-03-19T07:05:54.854Z,3724
2018-03-19T07:06:55.508Z,3864
2018-03-19T07:07:56.129Z,4080
2018-03-19T07:08:56.756Z,4372
2018-03-19T07:09:57.417Z,4684
2018-03-19T07:10:58.061Z,4988
2018-03-19T07:11:58.671Z,5320
2018-03-19T07:12:59.281Z,5664
2018-03-19T07:13:59.894Z,6020
2018-03-19T07:15:00.549Z,6380
2018-03-19T07:16:01.172Z,6712
2018-03-19T07:17:01.845Z,6932
2018-03-19T07:18:02.493Z,7064
2018-03-19T07:19:03.155Z,7240
2018-03-19T07:20:03.739Z,7476
2018-03-19T07:21:04.386Z,7656
2018-03-19T07:22:04.986Z,7768
2018-03-19T07:23:05.678Z,7892
2018-03-19T07:24:06.273Z,8068
2018-03-19T07:25:06.906Z,8236
2018-03-19T07:26:07.506Z,8288
2018-03-19T07:27:08.192Z,8252
2018-03-19T07:28:08.858Z,8208
2018-03-19T07:29:09.476Z,8388
2018-03-19T07:30:10.183Z,8768
2018-03-19T07:31:10.841Z,9000
2018-03-19T07:32:11.464Z,9136
2018-03-19T07:33:12.079Z,9300
2018-03-19T07:34:12.689Z,9376
2018-03-19T07:35:13.344Z,9468
2018-03-19T07:36:14.022Z,9692
2018-03-19T07:37:14.639Z,10048
2018-03-19T07:38:15.296Z,10368
2018-03-19T07:39:15.887Z,10568
2018-03-19T07:40:16.594Z,10660
2018-03-19T07:41:17.229Z,10796
2018-03-19T07:42:17.867Z,10984
2018-03-19T07:43:18.503Z,11332
2018-03-19T07:44:19.121Z,11732
2018-03-19T07:45:19.769Z,12008
2018-03-19T07:46:20.454Z,12036
2018-03-19T07:47:21.110Z,12080
2018-03-19T07:48:21.764Z,12172
2018-03-19T07:49:22.337Z,12068
2018-03-19T07:50:23.022Z,11904
2018-03-19T07:51:23.674Z,11908
2018-03-19T07:52:24.283Z,12224
2018-03-19T07:53:24.962Z,12748
2018-03-19T07:54:25.606Z,13332
2018-03-19T07:55:26.320Z,13676
2018-03-19T07:56:26.972Z,13888
2018-03-19T07:57:27.676Z,14128
2018-03-19T07:58:28.295Z,14624
2018-03-19T07:59:28.958Z,15144
2018-03-19T08:00:29.572Z,15496
2018-03-19T08:01:30.257Z,15516
2018-03-19T08:02:30.900Z,15236
2018-03-19T08:03:31.562Z,15200
2018-03-19T08:04:32.182Z,15476
2018-03-19T08:05:32.783Z,15920
2018-03-19T08:06:33.449Z,16244
2018-03-19T08:07:34.102Z,16644
2018-03-19T08:08:34.781Z,17112
2018-03-19T08:09:35.422Z,17560
2018-03-19T08:10:36.037Z,17960
2018-03-19T08:11:36.708Z,19552
2018-03-19T08:12:37.381Z,18132
2018-03-19T08:13:38.004Z,17844
2018-03-19T08:14:38.661Z,17948
2018-03-19T08:15:39.291Z,18320
2018-03-19T08:16:40.010Z,18868
2018-03-19T08:17:40.620Z,19680
2018-03-19T08:18:41.242Z,20192
2018-03-19T08:19:41.868Z,20256
2018-03-19T08:20:42.560Z,19680
2018-03-19T08:21:43.213Z,18544
2018-03-19T08:22:43.831Z,17716
2018-03-19T08:23:44.442Z,17304
2018-03-19T08:24:45.108Z,17384
2018-03-19T08:25:45.725Z,17924
2018-03-19T08:26:46.428Z,18468
2018-03-19T08:27:47.074Z,18572
2018-03-19T08:28:47.749Z,18384
2018-03-19T08:29:48.569Z,18356
2018-03-19T08:30:49.180Z,18684
2018-03-19T08:31:49.820Z,19456
2018-03-19T08:32:50.454Z,19872
2018-03-19T08:33:51.032Z,20256
2018-03-19T08:34:51.683Z,20608
2018-03-19T08:35:52.295Z,20640
2018-03-19T08:36:52.929Z,20544
2018-03-19T08:37:53.593Z,20800
2018-03-19T08:38:54.224Z,21536
2018-03-19T08:39:54.847Z,22176
2018-03-19T08:40:55.484Z,22336
2018-03-19T08:41:56.143Z,22336
2018-03-19T08:42:56.777Z,22400
2018-03-19T08:43:57.364Z,22720
2018-03-19T08:44:57.986Z,23040
2018-03-19T08:45:58.618Z,23296
2018-03-19T08:46:59.285Z,23520
2018-03-19T08:47:59.955Z,23904
2018-03-19T08:49:00.529Z,24320
2018-03-19T08:50:01.159Z,24384
2018-03-19T08:51:01.757Z,24384
2018-03-19T08:52:02.413Z,24448
2018-03-19T08:53:03.018Z,24544
2018-03-19T08:54:03.749Z,24416
2018-03-19T08:55:04.370Z,23808
2018-03-19T08:56:05.011Z,23136
2018-03-19T08:57:05.683Z,22560
2018-03-19T08:58:06.283Z,22368
2018-03-19T08:59:06.931Z,22368
2018-03-19T09:00:07.577Z,22464
2018-03-19T09:01:08.240Z,22432
2018-03-19T09:02:08.862Z,22496
2018-03-19T09:03:09.497Z,22560
2018-03-19T09:04:10.065Z,22496
2018-03-19T09:05:10.686Z,22400
2018-03-19T09:06:11.276Z,21920
2018-03-19T09:07:11.948Z,21696
2018-03-19T09:08:12.557Z,21568
2018-03-19T09:09:13.146Z,21536
2018-03-19T09:10:13.835Z,21536
2018-03-19T09:11:14.461Z,21600
2018-03-19T09:12:15.084Z,21440
2018-03-19T09:13:15.792Z,21152
2018-03-19T09:14:16.578Z,20832
2018-03-19T09:15:17.160Z,20640
2018-03-19T09:16:17.791Z,20800
2018-03-19T09:17:18.400Z,21184
2018-03-19T09:18:19.025Z,21760
2018-03-19T09:19:19.648Z,22368
2018-03-19T09:20:20.272Z,22816
2018-03-19T09:21:20.897Z,22848
2018-03-19T09:22:21.489Z,22560
2018-03-19T09:23:22.166Z,22304
2018-03-19T09:24:22.761Z,22176
2018-03-19T09:25:23.411Z,22336
2018-03-19T09:26:24.056Z,22720
2018-03-19T09:27:24.683Z,22944
2018-03-19T09:28:25.314Z,23104
2018-03-19T09:29:25.918Z,23264
2018-03-19T09:30:26.532Z,23616
2018-03-19T09:31:27.211Z,24032
2018-03-19T09:32:27.855Z,24288
2018-03-19T09:33:28.484Z,24288
2018-03-19T09:34:29.080Z,24000
2018-03-19T09:35:29.719Z,23552
2018-03-19T09:36:30.308Z,23200
2018-03-19T09:37:30.923Z,23232
2018-03-19T09:38:31.622Z,23840
2018-03-19T09:39:32.174Z,24896
2018-03-19T09:40:32.862Z,26144
2018-03-19T09:41:33.568Z,27680
2018-03-19T09:42:34.220Z,29504
2018-03-19T09:43:34.830Z,32064
2018-03-19T09:44:35.498Z,30976
2018-03-19T09:45:36.134Z,29408
2018-03-19T09:46:36.757Z,28384
2018-03-19T09:47:37.375Z,28320
2018-03-19T09:48:38.016Z,28832
2018-03-19T09:49:38.656Z,29120
2018-03-19T09:50:39.367Z,29280
2018-03-19T09:51:39.912Z,29216
2018-03-19T09:52:40.583Z,28960
2018-03-19T09:53:41.256Z,28448
2018-03-19T09:54:41.876Z,27616
2018-03-19T09:55:42.485Z,27264
2018-03-19T09:56:43.145Z,27840
2018-03-19T09:57:43.789Z,28960
2018-03-19T09:58:44.388Z,30144
2018-03-19T09:59:45.005Z,30784
2018-03-19T10:00:45.674Z,31136
2018-03-19T10:01:46.305Z,30496
2018-03-19T10:02:46.955Z,29408
2018-03-19T10:03:47.551Z,28224
2018-03-19T10:04:48.173Z,27264
2018-03-19T10:05:48.831Z,27072
2018-03-19T10:06:49.428Z,26976
2018-03-19T10:07:50.036Z,27616
2018-03-19T10:08:50.693Z,28736
2018-03-19T10:09:51.354Z,28640
2018-03-19T10:10:52.053Z,27648
2018-03-19T10:11:52.628Z,27264
2018-03-19T10:12:53.237Z,26336
2018-03-19T10:13:53.865Z,26784
2018-03-19T10:14:54.552Z,33056
2018-03-19T10:15:55.204Z,34400
2018-03-19T10:16:55.932Z,54528
2018-03-19T10:17:56.602Z,37824
2018-03-19T10:18:57.343Z,39552
2018-03-19T10:19:57.995Z,36736
2018-03-19T10:20:58.734Z,49056
2018-03-19T10:21:59.441Z,41216
2018-03-19T10:23:00.124Z,37216
2018-03-19T10:24:00.799Z,46048
2018-03-19T10:25:01.747Z,53376
2018-03-19T10:26:02.381Z,62624
2018-03-19T10:27:03.058Z,42656
2018-03-19T10:28:03.768Z,55776
2018-03-19T10:29:04.512Z,35232
2018-03-19T10:30:05.165Z,35392
2018-03-19T10:31:05.797Z,38048
2018-03-19T10:32:06.491Z,39872
2018-03-19T10:33:07.178Z,52384
2018-03-19T10:34:07.762Z,57440
2018-03-19T10:35:08.458Z,44320
2018-03-19T10:36:09.259Z,40768
2018-03-19T10:37:10.058Z,49856
2018-03-19T10:38:10.761Z,40320
2018-03-19T10:39:11.482Z,50048
2018-03-19T10:40:12.224Z,40896
2018-03-19T10:41:12.911Z,39104
2018-03-19T10:42:13.579Z,39136
2018-03-19T10:43:14.411Z,47936
2018-03-19T10:44:15.154Z,42464
2018-03-19T10:45:15.766Z,64960
2018-03-19T10:46:16.538Z,65824
2018-03-19T10:47:17.198Z,47552
2018-03-19T10:48:17.900Z,43296
2018-03-19T10:49:18.707Z,39264
2018-03-19T10:50:19.452Z,64608
2018-03-19T10:51:20.148Z,40352
2018-03-19T10:52:21.016Z,40768
2018-03-19T10:53:21.686Z,74528
2018-03-19T10:54:22.400Z,46912
2018-03-19T10:55:23.112Z,76160
2018-03-19T10:56:23.804Z,63488
2018-03-19T10:57:24.429Z,50752
2018-03-19T10:58:25.033Z,46752
2018-03-19T10:59:25.740Z,53824
2018-03-19T11:00:26.461Z,51712
2018-03-19T11:01:27.151Z,65696
2018-03-19T11:02:27.763Z,67264
2018-03-19T11:03:28.422Z,63680
2018-03-19T11:04:29.106Z,59168
2018-03-19T11:05:29.744Z,59040
2018-03-19T11:06:30.409Z,55904
2018-03-19T11:07:31.084Z,56416
2018-03-19T11:08:31.682Z,58112
2018-03-19T11:09:32.313Z,61440
2018-03-19T11:10:33.027Z,67296
2018-03-19T11:11:35.037Z,68704
2018-03-19T11:12:36.026Z,62560
2018-03-19T11:13:36.663Z,50848
2018-03-19T11:14:37.346Z,56864
2018-03-19T11:15:38.015Z,62400
2018-03-19T11:16:38.688Z,68608
2018-03-19T11:17:39.370Z,75872
2018-03-19T11:18:40.099Z,69952
2018-03-19T11:19:40.734Z,66432
2018-03-19T11:20:41.441Z,63840
2018-03-19T11:21:42.099Z,62368
2018-03-19T11:22:42.794Z,70016
2018-03-19T11:23:43.482Z,69408
2018-03-19T11:24:44.334Z,69184
2018-03-19T11:25:44.976Z,72416
2018-03-19T11:26:45.685Z,72608
2018-03-19T11:27:46.358Z,73088
2018-03-19T11:28:47.066Z,68896
2018-03-19T11:29:47.735Z,62272
2018-03-19T11:30:48.457Z,54208
2018-03-19T11:31:49.103Z,61504
2018-03-19T11:32:49.741Z,65536
2018-03-19T11:33:50.440Z,68544
2018-03-19T11:34:51.089Z,61440
2018-03-19T11:35:51.726Z,56736
2018-03-19T11:36:52.331Z,63872
2018-03-19T11:37:52.928Z,65536
2018-03-19T11:38:53.684Z,70016
2018-03-19T11:39:54.402Z,72256
2018-03-19T11:40:55.110Z,67712
2018-03-19T11:41:55.765Z,68736
2018-03-19T11:42:56.451Z,67680
2018-03-19T11:43:57.440Z,69440
2018-03-19T11:44:58.143Z,71232
2018-03-19T11:45:58.884Z,67872
2018-03-19T11:46:59.632Z,62272
2018-03-19T11:48:00.555Z,65280
2018-03-19T11:49:01.238Z,68256
2018-03-19T11:50:01.898Z,61056
2018-03-19T11:51:02.538Z,80320
2018-03-19T11:52:03.275Z,80992
2018-03-19T11:53:04.166Z,78112
2018-03-19T11:54:04.821Z,56192
2018-03-19T11:55:05.459Z,69056
2018-03-19T11:56:06.130Z,67808
2018-03-19T11:57:06.872Z,74176
2018-03-19T11:58:07.497Z,76192
2018-03-19T11:59:08.098Z,75168
2018-03-19T12:00:08.766Z,71904
2018-03-19T12:01:09.388Z,71008
2018-03-19T12:02:10.138Z,66944
2018-03-19T12:03:10.862Z,64896
2018-03-19T12:04:11.495Z,68896
2018-03-19T12:05:12.116Z,72192
2018-03-19T12:06:12.806Z,65088
2018-03-19T12:07:13.560Z,62048
2018-03-19T12:08:14.294Z,58336
2018-03-19T12:09:14.982Z,61568
2018-03-19T12:10:15.678Z,67328
2018-03-19T12:11:16.295Z,70272
2018-03-19T12:12:16.994Z,73504
2018-03-19T12:13:17.703Z,70528
2018-03-19T12:14:18.263Z,68128
2018-03-19T12:15:18.947Z,68576
2018-03-19T12:16:19.618Z,71840
2018-03-19T12:17:20.303Z,75008
2018-03-19T12:18:20.993Z,74176
2018-03-19T12:19:21.976Z,72192
2018-03-19T12:20:23.008Z,65568
2018-03-19T12:21:23.736Z,72064
2018-03-19T12:22:24.387Z,72448
2018-03-19T12:23:25.131Z,75648
2018-03-19T12:24:25.791Z,76544
2018-03-19T12:25:26.399Z,72128
2018-03-19T12:26:27.147Z,64480
2018-03-19T12:27:27.786Z,63840
2018-03-19T12:28:28.406Z,66208
2018-03-19T12:29:28.986Z,69408
2018-03-19T12:30:29.612Z,62464
2018-03-19T12:31:30.320Z,71200
2018-03-19T12:32:30.870Z,72864
2018-03-19T12:33:31.550Z,73984
2018-03-19T12:34:32.218Z,74784
2018-03-19T12:35:32.963Z,68992
2018-03-19T12:36:33.572Z,68512
2018-03-19T12:37:34.224Z,70912
2018-03-19T12:38:34.886Z,70624
2018-03-19T12:39:35.582Z,68128
2018-03-19T12:40:36.268Z,70592
2018-03-19T12:41:36.933Z,67072
2018-03-19T12:42:37.529Z,67296
2018-03-19T12:43:38.237Z,67616
2018-03-19T12:44:38.989Z,68896
2018-03-19T12:45:39.738Z,65728
2018-03-19T12:46:40.455Z,67552
2018-03-19T12:47:41.159Z,72288
2018-03-19T12:48:42.200Z,72864
2018-03-19T12:49:42.960Z,72704
2018-03-19T12:50:43.641Z,71296
2018-03-19T12:51:44.329Z,68032
2018-03-19T12:52:45.003Z,65856
2018-03-19T12:53:45.779Z,67968
2018-03-19T12:54:46.562Z,66880
2018-03-19T12:55:47.294Z,67424
2018-03-19T12:56:48.061Z,66560
2018-03-19T12:57:48.742Z,68736
2018-03-19T12:58:49.390Z,69184
2018-03-19T12:59:50.293Z,65152
2018-03-19T13:00:50.984Z,62560
2018-03-19T13:01:51.631Z,60640
2018-03-19T13:02:52.385Z,51456
2018-03-19T13:03:52.996Z,55936
2018-03-19T13:04:53.749Z,58176
2018-03-19T13:05:54.559Z,62304
2018-03-19T13:06:55.243Z,58368
2018-03-19T13:07:55.969Z,53312
2018-03-19T13:08:57.016Z,55136
2018-03-19T13:09:57.623Z,57856
2018-03-19T13:10:58.287Z,57440
2018-03-19T13:11:59.281Z,57216
2018-03-19T13:12:59.943Z,58848
2018-03-19T13:14:00.631Z,57408
2018-03-19T13:15:01.294Z,60352
2018-03-19T13:16:01.924Z,62624
2018-03-19T13:17:02.536Z,62560
2018-03-19T13:18:03.148Z,56096
2018-03-19T13:19:03.806Z,56448
2018-03-19T13:20:04.395Z,54752
2018-03-19T13:21:05.035Z,56128
2018-03-19T13:22:05.770Z,56512
2018-03-19T13:23:06.492Z,58336
2018-03-19T13:24:07.212Z,56224
2018-03-19T13:25:07.866Z,53856
2018-03-19T13:26:08.556Z,55680
2018-03-19T13:27:09.273Z,58112
2018-03-19T13:28:10.054Z,61920
2018-03-19T13:29:10.736Z,65696
2018-03-19T13:30:11.383Z,67776
2018-03-19T13:31:12.056Z,64192
2018-03-19T13:32:12.810Z,58304
2018-03-19T13:33:13.462Z,51936
2018-03-19T13:34:14.214Z,50464
2018-03-19T13:35:14.945Z,52992
2018-03-19T13:36:15.679Z,53024
2018-03-19T13:37:16.424Z,56352
2018-03-19T13:38:17.169Z,54432
2018-03-19T13:39:17.797Z,50496
2018-03-19T13:40:18.447Z,48800
2018-03-19T13:41:19.119Z,47744
2018-03-19T13:42:19.890Z,48288
2018-03-19T13:43:20.642Z,43808
2018-03-19T13:44:21.312Z,43904
2018-03-19T13:45:21.985Z,47616
2018-03-19T13:46:22.659Z,46944
2018-03-19T13:47:23.297Z,47296
2018-03-19T13:48:24.077Z,47584
2018-03-19T13:49:24.820Z,43840